Time;durP1;ratioP1;P1;durP2;ratioP2;P2;SDS_P1;SDS_P2;PMS_P1;PMS_P2;Temp;Humidity;BMP_temperature;BMP_pressure;BME280_temperature;BME280_humidity;BME280_pressure;Samples;Min_cycle;Max_cycle;Signal;HPM_P1;HPM_P2
2023/02/07 00:01:53;;;;;;;;;;;;;;;-2.45;70.89;100081.31;5038293;28;20389;-63
2023/02/07 00:04:21;;;;;;;;;;;;;;;-2.37;70.77;100095.41;5045280;28;19929;-63
2023/02/07 00:06:49;;;;;;;;;;;;;;;-2.34;71.05;100094.25;5036028;28;20251;-63
2023/02/07 00:09:19;;;;;;;;;;;;;;;-2.33;71.03;100101.22;5034832;28;20014;-63
2023/02/07 00:11:47;;;;;;;;;;;;;;;-2.24;70.76;100084.19;5035518;28;19983;-63
2023/02/07 00:14:15;;;;;;;;;;;;;;;-2.25;70.79;100077.19;5037528;28;20253;-63
2023/02/07 00:16:43;;;;;;;;;;;;;;;-2.41;71.11;100078.13;5031470;28;19936;-63
2023/02/07 00:19:11;;;;;;;;;;;;;;;-2.36;70.94;100080.25;5033935;28;19929;-67
2023/02/07 00:21:39;;;;;;;;;;;;;;;-2.43;70.51;100074.00;5037203;28;19925;-63
2023/02/07 00:24:07;;;;;;;;;;;;;;;-2.39;71.00;100062.00;5034055;28;19940;-63
2023/02/07 00:26:36;;;;;;;;;;;;;;;-2.42;70.59;100063.16;5037549;28;20378;-63
2023/02/07 00:29:05;;;;;;;;;;;;;;;-2.44;70.73;100041.22;5041543;28;20002;-63
2023/02/07 00:31:34;;;;;;;;;;;;;;;-2.50;70.55;100036.59;5041575;28;20555;-63
2023/02/07 00:34:03;;;;;;;;;;;;;;;-2.52;70.76;100041.25;5015444;28;19925;-63
2023/02/07 00:36:33;;;;;;;;;;;;;;;-2.59;71.14;100063.44;5041063;28;19928;-64
2023/02/07 00:39:01;;;;;;;;;;;;;;;-2.40;70.92;100053.19;5038885;28;19925;-63
2023/02/07 00:41:30;;;;;;;;;;;;;;;-2.44;70.53;100072.34;5042848;28;19929;-63
2023/02/07 00:46:54;;;;;;;;;;;;;;;-2.61;71.08;100070.72;5037153;28;19929;-63
2023/02/07 00:49:22;;;;;;;;;;;;;;;-2.48;70.65;100082.50;5033096;28;20012;-63
2023/02/07 00:51:50;;;;;;;;;;;;;;;-2.58;71.02;100076.56;5037687;28;19929;-63
2023/02/07 00:54:18;;;;;;;;;;;;;;;-2.50;69.88;100065.88;5037925;28;19928;-63
2023/02/07 00:56:46;;;;;;;;;;;;;;;-2.71;70.41;100076.28;5051601;28;19960;-63
2023/02/07 00:59:15;;;;;;;;;;;;;;;-2.70;70.75;100080.59;5046072;28;19932;-63
2023/02/07 01:01:44;;;;;;;;;;;;;;;-2.65;71.32;100081.75;5037013;28;19933;-63
2023/02/07 01:04:12;;;;;;;;;;;;;;;-2.54;70.50;100066.41;5043067;28;19924;-63
2023/02/07 01:06:43;;;;;;;;;;;;;;;-2.74;71.11;100071.28;5046276;28;20015;-63
2023/02/07 01:09:11;;;;;;;;;;;;;;;-2.50;70.82;100073.03;5063630;28;19974;-63
2023/02/07 01:11:39;;;;;;;;;;;;;;;-2.57;69.91;100064.06;5034846;28;19932;-63
2023/02/07 01:14:06;;;;;;;;;;;;;;;-2.73;70.35;100087.09;5031323;28;19935;-63
2023/02/07 01:16:36;;;;;;;;;;;;;;;-2.82;70.71;100093.44;5046367;28;19928;-64
2023/02/07 01:19:05;;;;;;;;;;;;;;;-2.72;70.20;100075.44;5034496;28;19929;-63
2023/02/07 01:21:33;;;;;;;;;;;;;;;-2.83;70.63;100086.44;5034166;28;19967;-64
2023/02/07 01:24:04;;;;;;;;;;;;;;;-2.91;70.53;100087.31;5051230;28;19935;-63
2023/02/07 01:26:34;;;;;;;;;;;;;;;-2.83;70.37;100097.09;5060320;28;20292;-63
2023/02/07 01:29:02;;;;;;;;;;;;;;;-2.87;71.02;100098.44;5054902;28;19925;-63
2023/02/07 01:31:30;;;;;;;;;;;;;;;-2.79;70.37;100098.41;5044154;28;20026;-63
2023/02/07 01:34:00;;;;;;;;;;;;;;;-2.91;70.27;100092.63;5032122;28;19928;-63
2023/02/07 01:39:24;;;;;;;;;;;;;;;-2.82;70.67;100090.78;5056358;28;19928;-63
2023/02/07 01:41:52;;;;;;;;;;;;;;;-2.94;70.58;100100.13;5039146;28;19925;-63
2023/02/07 01:44:48;;;;;;;;;;;;;;;-2.96;70.51;100089.66;5039884;28;19970;-63
2023/02/07 01:47:17;;;;;;;;;;;;;;;-3.10;71.28;100092.19;4988852;28;19978;-63
2023/02/07 01:53:05;;;;;;;;;;;;;;;-3.21;71.12;100075.59;5045633;28;19932;-63
2023/02/07 01:55:34;;;;;;;;;;;;;;;-3.10;71.20;100071.75;5049328;28;19924;-63
2023/02/07 01:58:02;;;;;;;;;;;;;;;-3.30;71.42;100066.00;5051632;28;19994;-63
2023/02/07 02:00:30;;;;;;;;;;;;;;;-3.11;71.57;100055.97;5037761;28;19995;-63
2023/02/07 02:02:59;;;;;;;;;;;;;;;-3.24;71.18;100049.34;5061097;28;19932;-63
2023/02/07 02:05:28;;;;;;;;;;;;;;;-3.26;71.66;100046.00;5033068;28;19939;-63
2023/02/07 02:07:56;;;;;;;;;;;;;;;-3.24;71.17;100044.03;5054025;28;19924;-63
2023/02/07 02:10:24;;;;;;;;;;;;;;;-3.30;71.67;100049.19;5038110;28;19928;-63
2023/02/07 02:13:10;;;;;;;;;;;;;;;-3.33;71.73;100049.53;5026605;28;19974;-63
2023/02/07 02:15:40;;;;;;;;;;;;;;;-3.29;71.61;100045.53;5056962;28;20025;-63
2023/02/07 02:18:49;;;;;;;;;;;;;;;-3.39;71.96;100045.72;5050724;28;19940;-62
2023/02/07 02:21:58;;;;;;;;;;;;;;;-3.37;72.12;100049.03;5055388;28;19924;-63
2023/02/07 02:24:56;;;;;;;;;;;;;;;-3.38;72.37;100054.53;5033350;28;19929;-63
2023/02/07 02:27:31;;;;;;;;;;;;;;;-3.31;72.10;100064.31;5049851;28;19947;-63
2023/02/07 02:30:14;;;;;;;;;;;;;;;-3.31;71.96;100072.28;5042244;28;19940;-63
2023/02/07 02:32:55;;;;;;;;;;;;;;;-3.46;71.70;100072.16;5035685;28;19935;-63
2023/02/07 02:35:25;;;;;;;;;;;;;;;-3.36;72.22;100060.50;5047317;28;20366;-63
2023/02/07 02:37:54;;;;;;;;;;;;;;;-3.37;71.69;100058.84;5049930;28;19931;-63
2023/02/07 02:43:19;;;;;;;;;;;;;;;-3.33;71.84;100044.22;5035036;28;19936;-63
2023/02/07 02:45:49;;;;;;;;;;;;;;;-3.27;71.86;100049.69;5047497;28;20010;-63
2023/02/07 02:48:19;;;;;;;;;;;;;;;-3.27;71.36;100055.00;5057833;28;19924;-63
2023/02/07 02:50:47;;;;;;;;;;;;;;;-3.22;70.97;100059.81;5040234;28;19936;-63
2023/02/07 02:56:26;;;;;;;;;;;;;;;-3.24;71.21;100051.19;5037265;28;19978;-63
2023/02/07 02:58:59;;;;;;;;;;;;;;;-3.37;70.91;100051.69;5046262;28;20024;-63
2023/02/07 03:01:29;;;;;;;;;;;;;;;-3.30;70.82;100039.41;5034325;28;19948;-66
2023/02/07 03:04:21;;;;;;;;;;;;;;;-3.39;70.81;100035.09;5033642;28;19928;-63
2023/02/07 03:06:55;;;;;;;;;;;;;;;-3.53;71.12;100030.47;5014329;28;20381;-64
2023/02/07 03:09:25;;;;;;;;;;;;;;;-3.63;71.99;100022.66;5025622;28;19960;-63
2023/02/07 03:11:56;;;;;;;;;;;;;;;-3.52;72.03;100029.47;5031116;28;19940;-63
2023/02/07 03:14:26;;;;;;;;;;;;;;;-3.54;72.13;100028.81;5037613;28;19933;-63
2023/02/07 03:16:56;;;;;;;;;;;;;;;-3.36;71.62;100021.44;5038101;28;19933;-63
2023/02/07 03:19:25;;;;;;;;;;;;;;;-3.47;71.80;100027.94;5047625;28;20015;-64
2023/02/07 03:22:19;;;;;;;;;;;;;;;-3.77;71.63;100032.16;5053791;28;19936;-63
2023/02/07 03:24:51;;;;;;;;;;;;;;;-3.75;71.96;100024.84;5052593;28;20020;-63
2023/02/07 03:27:20;;;;;;;;;;;;;;;-3.74;72.66;100036.28;5032191;28;19932;-68
2023/02/07 03:29:50;;;;;;;;;;;;;;;-3.88;72.57;100029.84;5057011;28;20468;-64
2023/02/07 03:32:18;;;;;;;;;;;;;;;-3.87;72.66;100031.50;5038427;28;19952;-65
2023/02/07 03:34:47;;;;;;;;;;;;;;;-3.96;73.22;100032.47;5064304;28;19925;-62
2023/02/07 03:37:16;;;;;;;;;;;;;;;-3.89;72.96;100033.47;5046523;28;19924;-63
2023/02/07 03:39:46;;;;;;;;;;;;;;;-3.86;73.20;100032.31;5040894;28;19932;-63
2023/02/07 03:42:15;;;;;;;;;;;;;;;-3.79;72.88;100023.50;5055912;28;19931;-63
2023/02/07 03:44:45;;;;;;;;;;;;;;;-3.83;72.87;100022.22;5044404;28;19931;-63
2023/02/07 03:47:16;;;;;;;;;;;;;;;-4.07;73.28;100024.84;5056185;28;19925;-63
2023/02/07 03:53:00;;;;;;;;;;;;;;;-3.85;73.04;100036.63;5034569;28;19928;-63
2023/02/07 03:55:31;;;;;;;;;;;;;;;-3.80;72.96;100043.09;5055394;28;19924;-63
2023/02/07 03:57:59;;;;;;;;;;;;;;;-3.86;72.65;100038.47;5059753;28;20003;-63
2023/02/07 04:00:27;;;;;;;;;;;;;;;-3.96;72.65;100048.41;5062457;28;20381;-63
2023/02/07 04:02:55;;;;;;;;;;;;;;;-3.96;72.89;100045.75;5054608;28;20472;-63
2023/02/07 04:05:23;;;;;;;;;;;;;;;-3.86;72.78;100051.75;5054649;28;19978;-63
2023/02/07 04:07:53;;;;;;;;;;;;;;;-3.91;72.75;100053.22;5052336;28;19924;-63
2023/02/07 04:10:21;;;;;;;;;;;;;;;-3.96;72.97;100049.25;5052226;28;19947;-63
2023/02/07 04:12:50;;;;;;;;;;;;;;;-3.79;72.39;100049.25;5060121;28;19928;-63
2023/02/07 04:15:18;;;;;;;;;;;;;;;-3.99;72.41;100054.91;5036613;28;19932;-63
2023/02/07 04:17:46;;;;;;;;;;;;;;;-3.95;72.33;100050.88;5048351;28;19978;-63
2023/02/07 04:20:15;;;;;;;;;;;;;;;-4.01;72.31;100062.19;5048439;28;19929;-63
2023/02/07 04:22:43;;;;;;;;;;;;;;;-4.19;72.93;100056.19;5049770;28;19932;-63
2023/02/07 04:25:11;;;;;;;;;;;;;;;-4.27;73.39;100050.84;5042172;28;20389;-63
2023/02/07 04:27:38;;;;;;;;;;;;;;;-4.27;73.87;100050.84;5040662;28;19933;-63
2023/02/07 04:30:09;;;;;;;;;;;;;;;-4.26;73.73;100050.72;5046826;28;19932;-63
2023/02/07 04:32:38;;;;;;;;;;;;;;;-4.19;74.09;100042.09;5052035;28;19979;-65
2023/02/07 04:35:06;;;;;;;;;;;;;;;-4.31;73.46;100039.75;5042299;28;20381;-63
2023/02/07 04:37:59;;;;;;;;;;;;;;;-4.23;73.25;100034.44;5033997;28;19982;-63
2023/02/07 04:40:52;;;;;;;;;;;;;;;-4.20;73.75;100032.47;5059107;28;20381;-63
2023/02/07 04:43:20;;;;;;;;;;;;;;;-4.23;72.94;100033.63;5058161;28;19925;-63
2023/02/07 04:45:49;;;;;;;;;;;;;;;-4.11;72.79;100039.44;5041551;28;19964;-63
2023/02/07 04:48:18;;;;;;;;;;;;;;;-4.19;72.47;100048.22;5058028;28;19928;-63
2023/02/07 04:50:46;;;;;;;;;;;;;;;-4.23;72.88;100042.41;5054625;28;19925;-63
2023/02/07 04:53:39;;;;;;;;;;;;;;;-4.23;72.90;100037.09;5059061;28;19924;-63
2023/02/07 04:56:07;;;;;;;;;;;;;;;-4.21;72.44;100034.28;5052585;28;19933;-63
2023/02/07 04:58:35;;;;;;;;;;;;;;;-4.28;72.56;100034.09;5058759;28;19940;-62
2023/02/07 05:01:05;;;;;;;;;;;;;;;-4.45;73.17;100037.72;5058977;28;20294;-63
2023/02/07 05:03:58;;;;;;;;;;;;;;;-4.38;73.50;100033.44;5056421;28;20392;-63
2023/02/07 05:06:50;;;;;;;;;;;;;;;-4.51;73.13;100031.25;5056443;28;19924;-63
2023/02/07 05:09:18;;;;;;;;;;;;;;;-4.53;73.24;100029.75;5030765;28;19932;-63
2023/02/07 05:11:46;;;;;;;;;;;;;;;-4.37;72.84;100036.91;5035310;28;19932;-63
2023/02/07 05:14:15;;;;;;;;;;;;;;;-4.40;72.81;100045.22;5041971;28;19929;-63
2023/02/07 05:16:44;;;;;;;;;;;;;;;-4.43;72.62;100038.38;5054488;28;19924;-62
2023/02/07 05:19:13;;;;;;;;;;;;;;;-4.45;72.48;100050.16;5065992;28;19924;-63
2023/02/07 05:21:41;;;;;;;;;;;;;;;-4.39;72.15;100042.38;5059815;28;19936;-63
2023/02/07 05:24:12;;;;;;;;;;;;;;;-4.44;72.93;100026.13;5051598;28;19929;-63
2023/02/07 05:26:40;;;;;;;;;;;;;;;-4.39;72.07;100039.72;5059232;28;19929;-65
2023/02/07 05:29:09;;;;;;;;;;;;;;;-4.38;72.70;100038.72;5061950;28;19928;-63
2023/02/07 05:34:24;;;;;;;;;;;;;;;-4.42;72.11;100033.91;5035800;28;19924;-64
2023/02/07 05:36:52;;;;;;;;;;;;;;;-4.40;72.01;100043.38;5057369;28;20392;-64
2023/02/07 05:39:20;;;;;;;;;;;;;;;-4.45;71.83;100058.13;5060145;28;20322;-64
2023/02/07 05:41:48;;;;;;;;;;;;;;;-4.36;72.14;100058.00;5056330;28;20002;-63
2023/02/07 05:44:17;;;;;;;;;;;;;;;-4.39;71.93;100055.66;5061575;28;19928;-65
2023/02/07 05:46:45;;;;;;;;;;;;;;;-4.43;71.89;100059.63;5057791;28;19924;-67
2023/02/07 05:49:13;;;;;;;;;;;;;;;-4.35;71.84;100064.94;5060030;28;19931;-65
2023/02/07 05:51:43;;;;;;;;;;;;;;;-4.48;71.28;100069.88;5057860;28;20469;-63
2023/02/07 05:54:11;;;;;;;;;;;;;;;-4.45;71.43;100074.88;5061298;28;19982;-64
2023/02/07 05:56:40;;;;;;;;;;;;;;;-4.54;71.14;100081.97;5050006;28;20385;-64
2023/02/07 05:59:08;;;;;;;;;;;;;;;-4.56;71.65;100088.44;5049407;28;19932;-63
2023/02/07 06:01:40;;;;;;;;;;;;;;;-4.53;72.30;100096.06;5048753;28;19972;-64
2023/02/07 06:04:08;;;;;;;;;;;;;;;-4.62;71.93;100097.03;5050878;28;19972;-68
2023/02/07 06:06:36;;;;;;;;;;;;;;;-4.61;72.52;100099.53;5055419;28;19932;-63
2023/02/07 06:09:05;;;;;;;;;;;;;;;-4.61;72.39;100098.69;5059357;28;19967;-63
2023/02/07 06:11:33;;;;;;;;;;;;;;;-4.53;72.07;100093.41;5041740;28;20028;-64
2023/02/07 06:14:02;;;;;;;;;;;;;;;-4.59;71.87;100089.56;5051635;28;19956;-63
2023/02/07 06:16:30;;;;;;;;;;;;;;;-4.85;72.70;100083.50;5057257;28;20355;-63
2023/02/07 06:19:00;;;;;;;;;;;;;;;-4.76;72.44;100096.63;5048573;28;20352;-64
2023/02/07 06:21:28;;;;;;;;;;;;;;;-4.64;72.24;100091.03;5052085;28;19932;-64
2023/02/07 06:24:14;;;;;;;;;;;;;;;-4.64;72.46;100102.47;5044530;28;20018;-64
2023/02/07 06:26:42;;;;;;;;;;;;;;;-4.76;72.57;100112.53;5049372;28;19937;-64
2023/02/07 06:29:10;;;;;;;;;;;;;;;-4.61;72.30;100117.25;5047037;28;19963;-63
2023/02/07 06:31:38;;;;;;;;;;;;;;;-4.57;71.93;100127.41;5048699;28;19968;-64
2023/02/07 06:34:06;;;;;;;;;;;;;;;-4.41;71.69;100133.75;5030576;28;19986;-64
2023/02/07 06:36:35;;;;;;;;;;;;;;;-4.39;71.41;100143.22;5032368;28;19924;-64
2023/02/07 06:39:03;;;;;;;;;;;;;;;-4.45;71.06;100149.16;5049046;28;19925;-64
2023/02/07 06:41:33;;;;;;;;;;;;;;;-4.42;71.60;100150.66;5052467;28;19925;-64
2023/02/07 06:44:01;;;;;;;;;;;;;;;-4.43;70.77;100144.50;5052198;28;19925;-64
2023/02/07 06:46:29;;;;;;;;;;;;;;;-4.53;70.87;100143.81;5048220;28;19924;-63
2023/02/07 06:48:57;;;;;;;;;;;;;;;-4.55;71.02;100148.44;5050616;28;19931;-58
2023/02/07 06:54:18;;;;;;;;;;;;;;;-4.44;71.18;100153.47;5052824;28;19924;-59
2023/02/07 06:56:47;;;;;;;;;;;;;;;-4.38;70.38;100152.00;5048803;28;20350;-57
2023/02/07 06:59:15;;;;;;;;;;;;;;;-4.55;70.43;100146.63;5052715;28;19932;-58
2023/02/07 07:01:43;;;;;;;;;;;;;;;-4.51;70.57;100147.97;5050762;28;19929;-58
2023/02/07 07:04:12;;;;;;;;;;;;;;;-4.29;70.19;100153.69;5051944;28;20377;-57
2023/02/07 07:06:40;;;;;;;;;;;;;;;-4.30;69.49;100146.72;5046597;28;19941;-58
2023/02/07 07:09:08;;;;;;;;;;;;;;;-4.34;70.23;100151.53;5036117;28;20285;-58
2023/02/07 07:11:37;;;;;;;;;;;;;;;-4.57;70.22;100145.13;5051899;28;19956;-58
2023/02/07 07:14:07;;;;;;;;;;;;;;;-4.40;69.65;100152.16;5056154;28;20011;-58
2023/02/07 07:16:35;;;;;;;;;;;;;;;-4.48;71.01;100158.25;5051232;28;20378;-58
2023/02/07 07:19:03;;;;;;;;;;;;;;;-4.52;70.75;100164.06;5052681;28;19928;-58
2023/02/07 07:21:31;;;;;;;;;;;;;;;-4.29;69.84;100167.78;5052434;28;19924;-58
2023/02/07 07:24:00;;;;;;;;;;;;;;;-4.50;70.28;100168.22;5054950;28;20001;-58
2023/02/07 07:26:29;;;;;;;;;;;;;;;-4.29;69.48;100170.44;5017271;28;20039;-59
2023/02/07 07:29:16;;;;;;;;;;;;;;;-4.28;69.88;100172.09;5037858;28;19960;-58
2023/02/07 07:31:45;;;;;;;;;;;;;;;-4.34;69.68;100167.44;5053544;28;20015;-58
2023/02/07 07:34:13;;;;;;;;;;;;;;;-4.28;69.07;100163.31;5036896;28;19940;-58
2023/02/07 07:36:41;;;;;;;;;;;;;;;-4.28;69.68;100172.09;5046180;28;20974;-59
2023/02/07 07:39:10;;;;;;;;;;;;;;;-4.22;69.10;100182.09;5034487;28;19939;-58
2023/02/07 07:41:38;;;;;;;;;;;;;;;-4.28;69.44;100173.94;5053607;28;20365;-58
2023/02/07 07:44:12;;;;;;;;;;;;;;;-4.22;69.34;100171.47;5034761;28;19935;-58
2023/02/07 07:46:41;;;;;;;;;;;;;;;-4.10;69.05;100176.47;5047899;28;20006;-58
2023/02/07 07:49:10;;;;;;;;;;;;;;;-3.95;68.17;100170.38;5052625;28;19925;-58
2023/02/07 07:51:41;;;;;;;;;;;;;;;-4.01;67.87;100167.56;5048824;28;19928;-61
2023/02/07 07:54:09;;;;;;;;;;;;;;;-4.08;68.59;100174.50;5049154;28;19933;-59
2023/02/07 07:56:37;;;;;;;;;;;;;;;-4.11;68.63;100174.81;5017052;28;20476;-58
2023/02/07 07:59:05;;;;;;;;;;;;;;;-4.04;67.79;100175.84;5026552;28;19925;-62
2023/02/07 08:01:44;;;;;;;;;;;;;;;-3.98;67.38;100184.00;5019406;28;20019;-58
2023/02/07 08:04:12;;;;;;;;;;;;;;;-4.03;67.92;100174.84;5020246;28;19940;-59
2023/02/07 08:06:40;;;;;;;;;;;;;;;-3.95;67.64;100173.03;5012727;28;19933;-58
2023/02/07 08:09:08;;;;;;;;;;;;;;;-3.89;67.34;100165.41;5017660;28;19933;-58
2023/02/07 08:11:36;;;;;;;;;;;;;;;-3.95;68.17;100172.22;5022977;28;19972;-58
2023/02/07 08:14:04;;;;;;;;;;;;;;;-3.81;67.31;100166.28;5018115;28;20670;-58
2023/02/07 08:16:32;;;;;;;;;;;;;;;-3.82;67.29;100172.59;5021812;28;19925;-58
2023/02/07 08:19:02;;;;;;;;;;;;;;;-3.70;66.63;100171.28;5018963;28;20016;-59
2023/02/07 08:21:31;;;;;;;;;;;;;;;-3.78;66.88;100168.63;5026371;28;19925;-58
2023/02/07 08:23:59;;;;;;;;;;;;;;;-3.70;66.51;100167.78;5021490;28;19925;-59
2023/02/07 08:26:27;;;;;;;;;;;;;;;-3.66;66.27;100165.63;5031950;28;19932;-58
2023/02/07 08:28:55;;;;;;;;;;;;;;;-3.50;66.19;100165.66;5017567;28;19933;-59
2023/02/07 08:31:27;;;;;;;;;;;;;;;-3.48;66.28;100158.34;5016913;28;19956;-58
2023/02/07 08:33:55;;;;;;;;;;;;;;;-3.37;65.34;100160.66;5017153;28;19933;-59
2023/02/07 08:36:48;;;;;;;;;;;;;;;-3.25;64.42;100159.34;5024619;28;19996;-59
2023/02/07 08:39:18;;;;;;;;;;;;;;;-3.36;64.69;100150.84;5017169;28;20004;-60
2023/02/07 08:41:46;;;;;;;;;;;;;;;-3.40;64.60;100161.00;5033957;28;19925;-58
2023/02/07 08:44:14;;;;;;;;;;;;;;;-3.24;64.67;100160.19;5022366;28;19933;-59
2023/02/07 08:46:43;;;;;;;;;;;;;;;-3.08;63.89;100159.34;5022047;28;20418;-58
2023/02/07 08:49:11;;;;;;;;;;;;;;;-3.13;64.00;100151.03;5022940;28;20019;-58
2023/02/07 08:51:41;;;;;;;;;;;;;;;-3.19;63.23;100153.34;5023378;28;19992;-58
2023/02/07 08:54:09;;;;;;;;;;;;;;;-3.10;63.41;100156.00;5013198;28;20018;-59
2023/02/07 08:56:39;;;;;;;;;;;;;;;-3.22;63.87;100159.00;5025266;28;19925;-58
2023/02/07 08:59:07;;;;;;;;;;;;;;;-3.10;63.83;100161.31;5029549;28;20277;-58
2023/02/07 09:01:36;;;;;;;;;;;;;;;-2.80;63.35;100152.63;5030170;28;20486;-59
2023/02/07 09:04:04;;;;;;;;;;;;;;;-2.74;62.63;100153.78;5028764;28;19986;-58
2023/02/07 09:06:32;;;;;;;;;;;;;;;-2.67;63.05;100155.56;5025207;28;19925;-59
2023/02/07 09:09:00;;;;;;;;;;;;;;;-2.77;62.99;100156.75;5040606;28;19933;-58
2023/02/07 09:11:28;;;;;;;;;;;;;;;-2.61;62.66;100148.75;5024652;28;19926;-59
2023/02/07 09:14:02;;;;;;;;;;;;;;;-2.43;60.70;100148.53;5020240;28;19965;-59
2023/02/07 09:16:30;;;;;;;;;;;;;;;-2.29;60.65;100149.59;5025688;28;19925;-59
2023/02/07 09:19:01;;;;;;;;;;;;;;;-2.16;60.74;100149.91;5029654;28;19925;-59
2023/02/07 09:21:32;;;;;;;;;;;;;;;-2.01;60.65;100147.31;5023154;28;20313;-59
2023/02/07 09:24:03;;;;;;;;;;;;;;;-1.94;59.80;100148.28;5019367;28;19936;-59
2023/02/07 09:26:33;;;;;;;;;;;;;;;-1.82;59.54;100135.38;5026169;28;19937;-59
2023/02/07 09:31:55;;;;;;;;;;;;;;;-1.74;58.97;100144.16;5026657;28;19956;-59
2023/02/07 09:34:24;;;;;;;;;;;;;;;-1.75;58.27;100139.00;5028498;28;20390;-60
2023/02/07 09:36:52;;;;;;;;;;;;;;;-1.94;58.44;100148.28;5029587;28;20495;-59
2023/02/07 09:39:20;;;;;;;;;;;;;;;-1.85;58.73;100142.72;5026304;28;19925;-59
2023/02/07 09:41:51;;;;;;;;;;;;;;;-1.79;58.12;100140.38;5042763;28;19925;-59
2023/02/07 09:44:24;;;;;;;;;;;;;;;-1.82;58.14;100130.88;5031494;28;19975;-59
2023/02/07 09:46:54;;;;;;;;;;;;;;;-1.63;57.66;100134.91;5031716;28;19925;-60
2023/02/07 09:49:30;;;;;;;;;;;;;;;-1.54;58.00;100138.38;5028963;28;19925;-59
2023/02/07 09:51:58;;;;;;;;;;;;;;;-1.51;57.65;100132.66;5027085;28;19929;-59
2023/02/07 09:54:27;;;;;;;;;;;;;;;-1.59;58.00;100134.38;5030638;28;19925;-58
2023/02/07 09:56:57;;;;;;;;;;;;;;;-1.30;57.51;100124.81;5023791;28;19959;-59
2023/02/07 09:59:27;;;;;;;;;;;;;;;-1.51;57.30;100132.66;5025435;28;20394;-59
2023/02/07 10:01:56;;;;;;;;;;;;;;;-1.14;56.15;100124.66;5029549;28;19925;-60
2023/02/07 10:04:35;;;;;;;;;;;;;;;-1.07;56.57;100130.09;5018853;28;19933;-59
2023/02/07 10:07:06;;;;;;;;;;;;;;;-0.98;55.96;100133.53;5014987;28;20086;-61
2023/02/07 10:09:37;;;;;;;;;;;;;;;-0.75;55.20;100128.09;5022528;28;20448;-61
2023/02/07 10:12:06;;;;;;;;;;;;;;;-0.81;54.62;100124.34;5033722;28;20293;-60
2023/02/07 10:14:42;;;;;;;;;;;;;;;-0.61;54.30;100125.44;5024812;28;19937;-61
2023/02/07 10:17:19;;;;;;;;;;;;;;;-0.46;54.10;100122.78;5028979;28;19932;-62
2023/02/07 10:20:01;;;;;;;;;;;;;;;-0.58;53.35;100119.75;5029406;28;19932;-62
2023/02/07 10:22:31;;;;;;;;;;;;;;;-0.60;53.69;100116.41;5026299;28;19925;-63
2023/02/07 10:25:08;;;;;;;;;;;;;;;-0.28;53.19;100117.84;5026748;28;19929;-63
2023/02/07 10:27:37;;;;;;;;;;;;;;;-0.27;53.16;100121.34;5031143;28;20385;-60
2023/02/07 10:30:08;;;;;;;;;;;;;;;-0.24;51.73;100121.00;5032490;28;19949;-59
2023/02/07 10:32:36;;;;;;;;;;;;;;;-0.03;52.63;100121.03;5029193;28;20398;-60
2023/02/07 10:35:08;;;;;;;;;;;;;;;-0.09;52.11;100113.78;5018114;28;19925;-60
2023/02/07 10:40:35;;;;;;;;;;;;;;;-0.01;52.01;100112.81;5022907;28;19932;-61
2023/02/07 10:43:04;;;;;;;;;;;;;;;0.18;50.25;100119.41;5031020;28;20385;-61
2023/02/07 10:45:34;;;;;;;;;;;;;;;0.25;49.17;100114.94;5033860;28;19925;-61
2023/02/07 10:48:02;;;;;;;;;;;;;;;0.34;49.36;100119.16;5033232;28;20290;-62
2023/02/07 10:50:31;;;;;;;;;;;;;;;0.43;48.47;100109.19;5031191;28;20367;-60
2023/02/07 10:53:00;;;;;;;;;;;;;;;0.38;47.27;100108.94;5034409;28;19925;-63
2023/02/07 10:55:35;;;;;;;;;;;;;;;0.32;47.20;100102.50;5029345;28;19925;-60
2023/02/07 10:58:03;;;;;;;;;;;;;;;0.29;47.08;100094.84;5029226;28;20378;-60
2023/02/07 11:00:49;;;;;;;;;;;;;;;0.35;47.76;100088.72;5031869;28;19925;-60
2023/02/07 11:03:19;;;;;;;;;;;;;;;0.56;46.77;100084.38;5033840;28;19933;-60
2023/02/07 11:05:53;;;;;;;;;;;;;;;0.44;45.66;100082.25;5031691;28;19925;-60
2023/02/07 11:08:23;;;;;;;;;;;;;;;0.61;46.67;100081.97;5030659;28;19932;-60
2023/02/07 11:10:52;;;;;;;;;;;;;;;0.65;46.05;100078.72;5035583;28;19925;-60
2023/02/07 11:13:20;;;;;;;;;;;;;;;0.88;46.29;100081.13;5028102;28;19925;-60
2023/02/07 11:15:52;;;;;;;;;;;;;;;1.10;45.35;100084.56;5030073;28;20394;-60
2023/02/07 11:18:36;;;;;;;;;;;;;;;1.08;44.61;100077.78;5033565;28;19925;-60
2023/02/07 11:22:08;;;;;;;;;;;;;;;1.19;44.34;100064.66;5026314;28;20571;-60
2023/02/07 11:24:38;;;;;;;;;;;;;;;1.31;45.18;100067.59;5031044;28;20016;-60
2023/02/07 11:27:07;;;;;;;;;;;;;;;1.46;43.76;100065.63;5023973;28;19932;-60
2023/02/07 11:29:37;;;;;;;;;;;;;;;1.63;44.20;100066.09;5029209;28;19980;-61
2023/02/07 11:32:07;;;;;;;;;;;;;;;1.47;42.29;100059.22;5035326;28;19929;-60
2023/02/07 11:34:43;;;;;;;;;;;;;;;1.49;42.56;100059.88;5023817;28;19925;-60
2023/02/07 11:37:18;;;;;;;;;;;;;;;1.48;42.71;100065.41;5030946;28;19933;-60
2023/02/07 11:39:46;;;;;;;;;;;;;;;1.48;43.73;100060.88;5036520;28;20007;-63
2023/02/07 11:42:17;;;;;;;;;;;;;;;1.57;43.43;100062.38;5037845;28;19925;-60
2023/02/07 11:44:46;;;;;;;;;;;;;;;1.71;44.19;100057.06;5027238;28;19925;-60
2023/02/07 11:55:27;;;;;;;;;;;;;;;1.80;42.42;100051.31;4946838;28;19926;-60
2023/02/07 11:57:57;;;;;;;;;;;;;;;1.86;42.31;100049.66;4950998;28;19986;-60
2023/02/07 12:00:26;;;;;;;;;;;;;;;1.88;43.01;100044.94;4942780;28;19941;-60
2023/02/07 12:02:59;;;;;;;;;;;;;;;1.89;42.40;100038.56;4948877;28;20021;-60
2023/02/07 12:05:28;;;;;;;;;;;;;;;2.02;43.22;100048.47;4950277;28;19933;-60
2023/02/07 12:07:57;;;;;;;;;;;;;;;2.17;42.78;100049.13;4925854;29;19927;-60
2023/02/07 12:10:26;;;;;;;;;;;;;;;2.20;42.34;100042.53;4940409;28;19927;-60
2023/02/07 12:12:56;;;;;;;;;;;;;;;2.25;41.93;100042.75;4948358;29;20384;-60
2023/02/07 12:15:25;;;;;;;;;;;;;;;2.18;41.63;100047.25;4949260;28;19934;-60
2023/02/07 12:17:57;;;;;;;;;;;;;;;2.24;41.57;100044.63;4951872;28;19927;-60
2023/02/07 12:20:27;;;;;;;;;;;;;;;2.07;41.82;100046.81;4951328;28;19931;-60
2023/02/07 12:22:58;;;;;;;;;;;;;;;2.31;41.00;100032.03;4949271;28;19926;-60
2023/02/07 12:25:48;;;;;;;;;;;;;;;2.33;42.07;100038.00;5024453;28;20084;-60
2023/02/07 12:28:42;;;;;;;;;;;;;;;2.08;41.17;100037.78;5010481;28;19925;-59
2023/02/07 12:31:13;;;;;;;;;;;;;;;2.10;41.55;100040.25;5006757;28;20298;-60
2023/02/07 12:33:42;;;;;;;;;;;;;;;2.14;41.52;100035.31;5008847;28;19933;-60
2023/02/07 12:36:12;;;;;;;;;;;;;;;2.42;41.46;100033.25;5009608;28;19934;-60
2023/02/07 12:38:42;;;;;;;;;;;;;;;2.41;40.97;100038.84;5007540;28;19929;-60
2023/02/07 12:41:14;;;;;;;;;;;;;;;2.48;40.75;100042.34;5005322;28;20372;-60
2023/02/07 12:43:47;;;;;;;;;;;;;;;2.54;39.98;100039.66;5009837;28;20024;-60
2023/02/07 12:46:18;;;;;;;;;;;;;;;2.64;40.89;100031.19;5011908;28;19932;-61
2023/02/07 12:48:52;;;;;;;;;;;;;;;2.73;40.39;100023.75;5011821;28;19925;-60
2023/02/07 12:51:23;;;;;;;;;;;;;;;2.73;40.15;100029.94;5012679;28;19936;-60
2023/02/07 12:53:55;;;;;;;;;;;;;;;2.61;39.85;100031.63;5010667;28;19929;-60
2023/02/07 12:56:27;;;;;;;;;;;;;;;2.57;40.82;100023.16;5030177;28;19979;-60
2023/02/07 12:59:21;;;;;;;;;;;;;;;2.68;41.06;100027.06;5050682;28;19925;-60
2023/02/07 13:01:55;;;;;;;;;;;;;;;2.74;40.23;100026.22;5048423;28;19998;-61
2023/02/07 13:04:31;;;;;;;;;;;;;;;2.62;40.66;100023.34;5030618;28;19931;-60
2023/02/07 13:07:03;;;;;;;;;;;;;;;2.65;41.06;100026.66;5023412;28;19939;-60
2023/02/07 13:09:32;;;;;;;;;;;;;;;2.56;40.17;100023.38;5046393;28;19924;-60
2023/02/07 13:12:02;;;;;;;;;;;;;;;2.76;39.53;100018.78;5047026;28;19929;-60
2023/02/07 13:14:31;;;;;;;;;;;;;;;2.57;40.51;100019.66;5051737;28;19925;-60
2023/02/07 13:17:05;;;;;;;;;;;;;;;2.65;40.43;100010.53;5052568;28;19955;-60
2023/02/07 13:19:58;;;;;;;;;;;;;;;2.70;40.38;100013.44;5049783;28;19947;-60
2023/02/07 13:22:27;;;;;;;;;;;;;;;2.89;41.01;100007.22;5044970;28;19925;-63
2023/02/07 13:24:55;;;;;;;;;;;;;;;2.96;40.66;100005.31;5041912;28;20407;-60
2023/02/07 13:27:49;;;;;;;;;;;;;;;3.03;40.04;100002.63;5042744;28;20098;-60
2023/02/07 13:30:17;;;;;;;;;;;;;;;3.00;41.28;100001.19;5050111;28;19963;-60
2023/02/07 13:32:47;;;;;;;;;;;;;;;2.89;41.09;100007.22;5046650;28;19925;-60
2023/02/07 13:35:16;;;;;;;;;;;;;;;2.91;40.68;100010.50;5042487;28;19933;-60
2023/02/07 13:37:46;;;;;;;;;;;;;;;3.01;40.50;100010.88;5046202;28;20398;-60